Appleton, Washington
Current Conditions -  °F | °C
As of 3:53 PM on Thursday 27 Nov 2014 (Local Time) from KDLS Reporting Station
Overcast Overcast  
Wind Chill: 13°   Ceiling: 6000
Heat Index: 13°   Visibility: 10mi
Dew Point: 10°   Wind: 5mph
Humidity: 80%   Direction: 130°SE
Pressure: 29.86"   Gusts: NA
Location:  45.81°N, 121.27°W
Report Text: KDLS 272353Z AUTO 13004KT 10SM FEW045 BKN060 OVC070 13/10 A2986 RMK AO2 RAB32E47 SLP113 P0000 60000 T01330100 10150 20122 56005
Loading
Personal Weather Stations






























Interactive Weather Map New forecast layout! Learn more

10-Day Weather Forecast

Advertisements
Track Severe Weather on mobile